Time;durP1;ratioP1;P1;durP2;ratioP2;P2;SDS_P1;SDS_P2;PMS_P1;PMS_P2;Temp;Humidity;BMP_temperature;BMP_pressure;BME280_temperature;BME280_humidity;BME280_pressure;Samples;Min_cycle;Max_cycle;Signal;HPM_P1;HPM_P2
2023/05/04 00:06:18;;;;;;;;;;;;;;;8.59;70.53;102773.19;20706937;28;19930;-54
2023/05/04 00:16:40;;;;;;;;;;;;;;;8.50;70.51;102764.50;20707524;28;19926;-54
2023/05/04 00:27:01;;;;;;;;;;;;;;;8.40;70.40;102752.38;20708287;28;19965;-54
2023/05/04 00:37:23;;;;;;;;;;;;;;;8.32;70.86;102754.88;20710498;28;19925;-54
2023/05/04 00:47:44;;;;;;;;;;;;;;;8.26;72.01;102739.31;20707386;28;19926;-54
2023/05/04 00:58:06;;;;;;;;;;;;;;;8.22;72.60;102737.56;20698632;28;19936;-54
2023/05/04 01:08:30;;;;;;;;;;;;;;;8.17;71.92;102728.03;20695722;28;19961;-54
2023/05/04 01:18:52;;;;;;;;;;;;;;;8.15;71.73;102723.72;20688519;28;19977;-53
2023/05/04 01:29:19;;;;;;;;;;;;;;;8.12;71.63;102715.09;20703244;28;20392;-54
2023/05/04 01:39:40;;;;;;;;;;;;;;;8.07;71.33;102717.63;20699924;28;19984;-54
2023/05/04 01:50:03;;;;;;;;;;;;;;;7.91;71.58;102718.28;20691207;28;19996;-54
2023/05/04 02:00:25;;;;;;;;;;;;;;;7.86;71.32;102717.38;20705606;28;19933;-54
2023/05/04 02:10:47;;;;;;;;;;;;;;;7.76;72.65;102705.25;20694910;28;19972;-53
2023/05/04 02:21:08;;;;;;;;;;;;;;;7.63;72.65;102687.03;20693924;28;20051;-54
2023/05/04 02:31:29;;;;;;;;;;;;;;;7.59;73.08;102673.25;20709070;28;20351;-54
2023/05/04 02:41:51;;;;;;;;;;;;;;;7.55;73.33;102662.88;20710114;28;19936;-54
2023/05/04 02:52:12;;;;;;;;;;;;;;;7.58;73.00;102675.81;20713076;28;19980;-52
2023/05/04 03:02:34;;;;;;;;;;;;;;;7.56;73.78;102672.38;20712445;28;20617;-54
2023/05/04 03:12:55;;;;;;;;;;;;;;;7.49;73.84;102660.25;20706413;28;19965;-53
2023/05/04 03:23:17;;;;;;;;;;;;;;;7.49;73.31;102647.38;20715685;28;19973;-54
2023/05/04 03:33:38;;;;;;;;;;;;;;;7.43;74.17;102637.00;20713696;28;19934;-55
2023/05/04 03:43:59;;;;;;;;;;;;;;;7.43;73.79;102621.56;20701818;28;19982;-54
2023/05/04 03:54:21;;;;;;;;;;;;;;;7.48;74.51;102622.47;20707087;28;19926;-54
2023/05/04 04:04:42;;;;;;;;;;;;;;;7.45;75.15;102614.72;20702220;28;19926;-53
2023/05/04 04:15:04;;;;;;;;;;;;;;;7.46;74.54;102611.28;20709368;28;19933;-54
2023/05/04 04:25:25;;;;;;;;;;;;;;;7.48;75.47;102605.31;20706187;28;19937;-55
2023/05/04 04:35:47;;;;;;;;;;;;;;;7.53;75.13;102616.50;20692467;28;20423;-55
2023/05/04 04:46:08;;;;;;;;;;;;;;;7.64;76.02;102614.03;20713130;28;19941;-54
2023/05/04 04:56:30;;;;;;;;;;;;;;;7.72;74.13;102622.72;20698867;28;20054;-54
2023/05/04 05:06:53;;;;;;;;;;;;;;;7.79;75.02;102621.94;20704382;28;20282;-54
2023/05/04 05:17:14;;;;;;;;;;;;;;;7.89;74.59;102624.63;20700308;28;19926;-55
2023/05/04 05:27:35;;;;;;;;;;;;;;;7.94;75.36;102632.41;20703687;28;20003;-53
2023/05/04 05:37:57;;;;;;;;;;;;;;;8.15;74.19;102622.28;20692305;28;19930;-54
2023/05/04 05:48:18;;;;;;;;;;;;;;;8.34;73.84;102616.47;20705102;28;19929;-55
2023/05/04 05:58:40;;;;;;;;;;;;;;;8.46;73.92;102623.47;20707412;28;19933;-55
2023/05/04 06:09:01;;;;;;;;;;;;;;;8.68;73.63;102607.28;20694567;28;20377;-54
2023/05/04 06:19:23;;;;;;;;;;;;;;;8.93;73.87;102594.53;20698250;28;19929;-54
2023/05/04 06:29:45;;;;;;;;;;;;;;;9.20;72.58;102591.19;20700233;28;19933;-54
2023/05/04 06:40:07;;;;;;;;;;;;;;;9.49;73.99;102581.81;20703214;28;19926;-54
2023/05/04 06:50:29;;;;;;;;;;;;;;;9.81;70.95;102572.41;20685284;28;20023;-54
2023/05/04 07:00:51;;;;;;;;;;;;;;;9.95;71.46;102569.81;20700503;28;19976;-54
2023/05/04 07:11:13;;;;;;;;;;;;;;;10.10;69.96;102559.53;20695282;28;19964;-53
2023/05/04 07:21:34;;;;;;;;;;;;;;;10.38;71.14;102550.88;20706632;28;19925;-53
2023/05/04 07:31:56;;;;;;;;;;;;;;;10.73;70.58;102551.66;20713359;28;19929;-55
2023/05/04 07:42:17;;;;;;;;;;;;;;;10.97;69.96;102548.97;20706518;28;19933;-53
2023/05/04 07:52:38;;;;;;;;;;;;;;;11.25;69.20;102541.06;20699602;28;20289;-54
2023/05/04 08:03:00;;;;;;;;;;;;;;;11.47;68.64;102527.13;20714546;28;20443;-54
2023/05/04 08:13:21;;;;;;;;;;;;;;;11.75;68.47;102507.94;20697244;28;19975;-53
2023/05/04 08:23:43;;;;;;;;;;;;;;;12.03;67.57;102496.47;20693594;28;19930;-55
2023/05/04 08:34:05;;;;;;;;;;;;;;;12.34;67.33;102471.94;20707131;28;19983;-55
2023/05/04 08:44:28;;;;;;;;;;;;;;;12.70;66.36;102471.50;20716390;28;20783;-57
2023/05/04 08:54:51;;;;;;;;;;;;;;;13.16;65.94;102457.94;20706417;28;19929;-55
2023/05/04 09:05:13;;;;;;;;;;;;;;;13.55;64.66;102454.72;20693123;28;19980;-54
2023/05/04 09:15:35;;;;;;;;;;;;;;;13.84;64.17;102461.16;20717139;28;19944;-56
2023/05/04 09:25:56;;;;;;;;;;;;;;;14.20;62.99;102443.16;20689350;28;19926;-53
2023/05/04 09:36:19;;;;;;;;;;;;;;;14.45;62.62;102432.25;20681353;28;19957;-57
2023/05/04 09:46:41;;;;;;;;;;;;;;;14.79;61.32;102408.97;20686912;28;20234;-56
2023/05/04 09:57:12;;;;;;;;;;;;;;;15.29;60.38;102394.78;20713722;28;19936;-54
2023/05/04 10:07:35;;;;;;;;;;;;;;;15.42;60.06;102383.19;20709312;28;19929;-55
2023/05/04 10:18:16;;;;;;;;;;;;;;;15.59;58.76;102370.53;20691676;28;19981;-55
2023/05/04 10:28:38;;;;;;;;;;;;;;;15.88;59.58;102352.34;20683009;28;20254;-56
2023/05/04 10:38:59;;;;;;;;;;;;;;;16.06;60.11;102355.31;20683792;28;19935;-55
2023/05/04 10:49:46;;;;;;;;;;;;;;;16.13;54.98;102340.34;20682487;28;20672;-55
2023/05/04 11:00:08;;;;;;;;;;;;;;;16.31;58.68;102321.50;20704786;28;20369;-54
2023/05/04 11:10:30;;;;;;;;;;;;;;;16.57;55.59;102303.28;20691085;28;19956;-56
2023/05/04 11:20:51;;;;;;;;;;;;;;;16.86;52.35;102290.19;20700125;28;19988;-55
2023/05/04 11:31:13;;;;;;;;;;;;;;;17.23;58.88;102270.63;20682464;28;19933;-56
2023/05/04 11:41:35;;;;;;;;;;;;;;;17.70;57.45;102264.59;20702331;28;19937;-56
2023/05/04 11:52:09;;;;;;;;;;;;;;;17.61;55.75;102259.69;20693992;28;19929;-57
2023/05/04 12:02:30;;;;;;;;;;;;;;;17.67;55.53;102249.00;20701418;28;21145;-56
2023/05/04 12:12:52;;;;;;;;;;;;;;;17.70;56.88;102241.91;20687060;28;19930;-57
2023/05/04 12:23:13;;;;;;;;;;;;;;;17.86;54.98;102234.31;20661142;28;19925;-55
2023/05/04 12:33:35;;;;;;;;;;;;;;;18.16;55.99;102233.16;20681550;28;20180;-56
2023/05/04 12:43:56;;;;;;;;;;;;;;;18.03;55.99;102214.44;20686841;28;19932;-56
2023/05/04 12:54:18;;;;;;;;;;;;;;;17.77;57.25;102203.22;20685537;28;19980;-56
2023/05/04 13:04:39;;;;;;;;;;;;;;;18.00;58.48;102179.66;20695443;28;19926;-56
2023/05/04 13:15:01;;;;;;;;;;;;;;;18.04;57.46;102168.09;20695379;28;19936;-56
2023/05/04 13:25:22;;;;;;;;;;;;;;;18.17;56.17;102156.22;20695521;28;20844;-55
2023/05/04 13:35:43;;;;;;;;;;;;;;;18.13;53.84;102128.44;20693866;28;19929;-56
2023/05/04 13:46:05;;;;;;;;;;;;;;;18.25;56.42;102117.47;20677499;28;20024;-57
2023/05/04 13:56:26;;;;;;;;;;;;;;;18.38;56.22;102108.19;20684773;28;19940;-55
2023/05/04 14:06:48;;;;;;;;;;;;;;;18.58;55.73;102094.28;20692757;28;20071;-55
2023/05/04 14:17:10;;;;;;;;;;;;;;;18.74;55.93;102077.81;20675575;28;19925;-54
2023/05/04 14:27:34;;;;;;;;;;;;;;;18.64;56.71;102062.56;20704230;28;19929;-57
2023/05/04 14:37:56;;;;;;;;;;;;;;;18.66;54.89;102056.28;20712965;28;19929;-57
2023/05/04 14:48:17;;;;;;;;;;;;;;;18.69;55.26;102040.44;20717753;28;20620;-58
2023/05/04 14:58:39;;;;;;;;;;;;;;;18.49;56.18;102036.97;20705737;28;19972;-57
2023/05/04 15:09:02;;;;;;;;;;;;;;;18.49;54.84;102027.34;20709006;28;20385;-57
2023/05/04 15:19:23;;;;;;;;;;;;;;;18.48;52.85;102009.91;20705784;28;19996;-56
2023/05/04 15:29:45;;;;;;;;;;;;;;;18.71;53.92;102007.13;20720039;28;19926;-57
2023/05/04 15:40:07;;;;;;;;;;;;;;;18.75;53.61;101990.31;20713013;28;19930;-55
2023/05/04 15:50:29;;;;;;;;;;;;;;;18.84;54.77;101987.28;20704840;28;19999;-56
2023/05/04 16:00:53;;;;;;;;;;;;;;;18.78;54.92;101966.59;20687657;28;19925;-57
2023/05/04 16:11:15;;;;;;;;;;;;;;;18.82;54.87;101967.31;20715303;28;20037;-56
2023/05/04 16:21:36;;;;;;;;;;;;;;;18.99;52.53;101955.09;20693279;28;19926;-54
2023/05/04 16:31:57;;;;;;;;;;;;;;;19.11;55.86;101932.69;20704201;28;19972;-56
2023/05/04 16:42:19;;;;;;;;;;;;;;;19.03;54.71;101919.06;20710510;28;19926;-61
2023/05/04 16:52:42;;;;;;;;;;;;;;;19.22;54.57;101919.03;20692721;28;20316;-55
2023/05/04 17:03:03;;;;;;;;;;;;;;;19.35;52.37;101917.56;20685757;28;19930;-53
2023/05/04 17:13:25;;;;;;;;;;;;;;;19.38;53.41;101904.28;20705440;28;20016;-56
2023/05/04 17:23:47;;;;;;;;;;;;;;;19.26;54.90;101902.22;20707449;28;19934;-54
2023/05/04 17:34:08;;;;;;;;;;;;;;;18.93;55.04;101896.81;20691634;28;19926;-55
2023/05/04 17:44:31;;;;;;;;;;;;;;;18.63;56.16;101893.84;20708183;28;20389;-56
2023/05/04 17:54:53;;;;;;;;;;;;;;;18.37;57.06;101898.56;20700762;28;20459;-56
2023/05/04 18:05:14;;;;;;;;;;;;;;;18.16;58.39;101912.59;20697089;28;20341;-55
2023/05/04 18:15:36;;;;;;;;;;;;;;;17.94;57.26;101907.47;20713190;28;19936;-57
2023/05/04 18:25:57;;;;;;;;;;;;;;;17.77;58.70;101915.19;20698347;28;20266;-57
2023/05/04 18:36:19;;;;;;;;;;;;;;;17.54;57.44;101915.28;20686083;28;20633;-56
2023/05/04 18:46:40;;;;;;;;;;;;;;;17.36;55.65;101923.88;20709696;28;19925;-56
2023/05/04 18:57:02;;;;;;;;;;;;;;;17.16;56.78;101929.03;20692990;28;19934;-56
2023/05/04 19:07:23;;;;;;;;;;;;;;;16.94;57.87;101921.16;20689250;28;19937;-56
2023/05/04 19:17:45;;;;;;;;;;;;;;;16.74;57.03;101919.31;20701625;28;19958;-56
2023/05/04 19:28:10;;;;;;;;;;;;;;;16.52;56.89;101918.41;20704362;28;20241;-56
2023/05/04 19:38:32;;;;;;;;;;;;;;;16.34;58.59;101923.41;20708471;28;20408;-57
2023/05/04 19:48:53;;;;;;;;;;;;;;;16.19;59.19;101935.28;20710653;28;20261;-56
2023/05/04 19:59:14;;;;;;;;;;;;;;;15.96;58.75;101927.41;20705307;28;20766;-55
2023/05/04 20:09:36;;;;;;;;;;;;;;;15.77;56.33;101927.16;20708406;28;19941;-56
2023/05/04 20:19:57;;;;;;;;;;;;;;;15.69;59.57;101925.75;20707021;28;19952;-56
2023/05/04 20:30:19;;;;;;;;;;;;;;;15.56;57.11;101929.66;20702414;28;20348;-54
2023/05/04 20:40:40;;;;;;;;;;;;;;;15.53;60.84;101932.38;20693185;28;19933;-56
2023/05/04 20:51:03;;;;;;;;;;;;;;;15.39;59.41;101924.09;20702662;28;19984;-56
2023/05/04 21:01:35;;;;;;;;;;;;;;;15.30;61.00;101924.38;20695887;28;19929;-56
2023/05/04 21:11:57;;;;;;;;;;;;;;;15.20;60.94;101918.59;20692797;28;20569;-56
2023/05/04 21:22:18;;;;;;;;;;;;;;;15.06;61.72;101913.84;20710666;28;19930;-54
2023/05/04 21:32:40;;;;;;;;;;;;;;;14.84;61.49;101914.53;20700671;28;19944;-56
2023/05/04 21:43:01;;;;;;;;;;;;;;;14.60;60.22;101904.81;20698016;28;19925;-56
2023/05/04 21:53:23;;;;;;;;;;;;;;;14.47;62.63;101904.31;20692288;28;20385;-56
2023/05/04 22:03:44;;;;;;;;;;;;;;;14.21;62.77;101898.97;20698761;28;19938;-56
2023/05/04 22:14:06;;;;;;;;;;;;;;;14.03;63.98;101895.13;20701109;28;19933;-56
2023/05/04 22:24:27;;;;;;;;;;;;;;;13.89;64.52;101893.78;20693658;28;19926;-55
2023/05/04 22:34:49;;;;;;;;;;;;;;;13.74;64.88;101888.97;20703536;28;19929;-56
2023/05/04 22:45:13;;;;;;;;;;;;;;;13.56;66.17;101877.31;20697362;28;20266;-56
2023/05/04 22:55:35;;;;;;;;;;;;;;;13.43;65.47;101872.44;20714996;28;19936;-56
2023/05/04 23:05:59;;;;;;;;;;;;;;;13.31;65.81;101878.81;20709698;28;19937;-56
2023/05/04 23:16:21;;;;;;;;;;;;;;;13.18;66.73;101886.94;20714099;28;19976;-55
2023/05/04 23:26:42;;;;;;;;;;;;;;;13.09;66.43;101888.84;20710327;28;19937;-55
2023/05/04 23:37:03;;;;;;;;;;;;;;;12.95;66.57;101885.69;20703608;28;20353;-56
2023/05/04 23:47:25;;;;;;;;;;;;;;;12.85;67.22;101871.22;20704655;28;19929;-56
2023/05/04 23:57:46;;;;;;;;;;;;;;;12.72;66.68;101863.72;20709101;28;19929;-55
